Time;durP1;ratioP1;P1;durP2;ratioP2;P2;SDS_P1;SDS_P2;PMS_P1;PMS_P2;Temp;Humidity;BMP_temperature;BMP_pressure;BME280_temperature;BME280_humidity;BME280_pressure;Samples;Min_cycle;Max_cycle;Signal;HPM_P1;HPM_P2
2022/08/05 00:00:44;;;;;;;;;;;;;;;;;;2211349;67;1937;-55
2022/08/05 00:03:17;;;;;;;;;;;;;;;;;;2211687;59;1396;-54
2022/08/05 00:05:50;;;;;;;;;;;;;;;;;;2212372;60;1105;-55
2022/08/05 00:08:26;;;;;;;;;;;;;;;;;;2211999;59;1473;-55
2022/08/05 00:10:59;;;;;;;;;;;;;;;;;;2213287;67;1299;-55
2022/08/05 00:13:33;;;;;;;;;;;;;;;;;;2213019;67;1154;-54
2022/08/05 00:16:07;;;;;;;;;;;;;;;;;;2213245;59;1426;-55
2022/08/05 00:18:41;;;;;;;;;;;;;;;;;;2209438;67;1893;-54
2022/08/05 00:21:15;;;;;;;;;;;;;;;;;;2212841;67;1953;-54
2022/08/05 00:23:51;;;;;;;;;;;;;;;;;;2212478;67;1248;-54
2022/08/05 00:26:24;;;;;;;;;;;;;;;;;;2212304;67;1243;-54
2022/08/05 00:28:57;;;;;;;;;;;;;;;;;;2211554;67;1172;-55
2022/08/05 00:31:30;;;;;;;;;;;;;;;;;;2211414;67;1187;-58
2022/08/05 00:34:04;;;;;;;;;;;;;;;;;;2210270;67;1941;-57
2022/08/05 00:36:37;;;;;;;;;;;;;;;;;;2212700;59;1344;-54
2022/08/05 00:39:13;;;;;;;;;;;;;;;;;;2212604;59;1570;-54
2022/08/05 00:41:47;;;;;;;;;;;;;;;;;;2212689;67;1921;-54
2022/08/05 00:44:20;;;;;;;;;;;;;;;;;;2212066;67;1266;-54
2022/08/05 00:46:54;;;;;;;;;;;;;;;;;;2212944;67;1249;-54
2022/08/05 00:49:27;;;;;;;;;;;;;;;;;;2212086;67;1192;-54
2022/08/05 00:52:00;;;;;;;;;;;;;;;;;;2212498;67;1144;-54
2022/08/05 00:54:36;;;;;;;;;;;;;;;;;;2213187;67;1223;-55
2022/08/05 00:57:09;;;;;;;;;;;;;;;;;;2211765;67;1203;-55
2022/08/05 00:59:42;;;;;;;;;;;;;;;;;;2212496;67;1100;-54
2022/08/05 01:02:15;;;;;;;;;;;;;;;;;;2212237;59;1892;-54
2022/08/05 01:04:48;;;;;;;;;;;;;;;;;;2212092;59;1273;-55
2022/08/05 01:07:22;;;;;;;;;;;;;;;;;;2210830;67;1244;-56
2022/08/05 01:09:58;;;;;;;;;;;;;;;;;;2211716;59;1601;-54
2022/08/05 01:12:31;;;;;;;;;;;;;;;;;;2211639;67;1288;-54
2022/08/05 01:15:06;;;;;;;;;;;;;;;;;;2208942;67;1860;-54
2022/08/05 01:17:40;;;;;;;;;;;;;;;;;;2212029;67;1295;-55
2022/08/05 01:20:16;;;;;;;;;;;;;;;;;;2211491;60;1953;-54
2022/08/05 01:22:57;;;;;;;;;;;;;;;;;;2210760;67;1143;-55
2022/08/05 01:25:50;;;;;;;;;;;;;;;;;;2210342;67;1167;-55
2022/08/05 01:28:34;;;;;;;;;;;;;;;;;;2205822;67;1230;-54
2022/08/05 01:31:11;;;;;;;;;;;;;;;;;;2210077;59;1192;-54
2022/08/05 01:33:46;;;;;;;;;;;;;;;;;;2211157;67;1113;-55
2022/08/05 01:36:20;;;;;;;;;;;;;;;;;;2210625;59;1429;-55
2022/08/05 01:38:53;;;;;;;;;;;;;;;;;;2212476;59;1588;-54
2022/08/05 01:41:29;;;;;;;;;;;;;;;;;;2211748;67;1933;-55
2022/08/05 01:44:06;;;;;;;;;;;;;;;;;;2211992;67;1243;-55
2022/08/05 01:46:40;;;;;;;;;;;;;;;;;;2211572;67;1218;-55
2022/08/05 01:49:15;;;;;;;;;;;;;;;;;;2211676;67;1233;-56
2022/08/05 01:51:49;;;;;;;;;;;;;;;;;;2210855;67;1321;-54
2022/08/05 01:54:23;;;;;;;;;;;;;;;;;;2210772;67;1272;-56
2022/08/05 01:56:57;;;;;;;;;;;;;;;;;;2212080;67;1237;-54
2022/08/05 01:59:35;;;;;;;;;;;;;;;;;;2210444;67;1227;-55
2022/08/05 02:02:10;;;;;;;;;;;;;;;;;;2210601;59;2004;-55
2022/08/05 02:04:44;;;;;;;;;;;;;;;;;;2210442;59;1287;-56
2022/08/05 02:07:17;;;;;;;;;;;;;;;;;;2210858;67;1174;-59
2022/08/05 02:09:51;;;;;;;;;;;;;;;;;;2210983;67;1240;-54
2022/08/05 02:12:29;;;;;;;;;;;;;;;;;;2209880;67;1292;-55
2022/08/05 02:15:08;;;;;;;;;;;;;;;;;;2212041;59;1393;-54
2022/08/05 02:17:47;;;;;;;;;;;;;;;;;;2209789;59;1249;-56
2022/08/05 02:20:21;;;;;;;;;;;;;;;;;;2210057;67;1927;-54
2022/08/05 02:22:57;;;;;;;;;;;;;;;;;;2210081;67;1197;-54
2022/08/05 02:25:35;;;;;;;;;;;;;;;;;;2210142;67;1153;-56
2022/08/05 02:28:10;;;;;;;;;;;;;;;;;;2210280;59;1295;-55
2022/08/05 02:30:48;;;;;;;;;;;;;;;;;;2210028;67;1228;-54
2022/08/05 02:33:22;;;;;;;;;;;;;;;;;;2209437;67;1243;-54
2022/08/05 02:35:58;;;;;;;;;;;;;;;;;;2211298;59;1375;-55
2022/08/05 02:38:31;;;;;;;;;;;;;;;;;;2210064;67;1547;-55
2022/08/05 02:41:05;;;;;;;;;;;;;;;;;;2210464;59;2323;-54
2022/08/05 02:43:39;;;;;;;;;;;;;;;;;;2210497;67;1216;-54
2022/08/05 02:46:17;;;;;;;;;;;;;;;;;;2211276;67;1287;-57
2022/08/05 02:48:51;;;;;;;;;;;;;;;;;;2210299;67;1286;-56
2022/08/05 02:51:25;;;;;;;;;;;;;;;;;;2209568;67;1219;-54
2022/08/05 02:53:59;;;;;;;;;;;;;;;;;;2210536;67;1227;-55
2022/08/05 02:56:33;;;;;;;;;;;;;;;;;;2210044;67;1158;-55
2022/08/05 02:59:07;;;;;;;;;;;;;;;;;;2206661;67;1430;-54
2022/08/05 03:01:44;;;;;;;;;;;;;;;;;;2209958;59;1917;-54
2022/08/05 03:04:17;;;;;;;;;;;;;;;;;;2209996;59;2477;-56
2022/08/05 03:06:50;;;;;;;;;;;;;;;;;;2206081;67;1268;-54
2022/08/05 03:09:24;;;;;;;;;;;;;;;;;;2209722;59;1648;-54
2022/08/05 03:11:57;;;;;;;;;;;;;;;;;;2210611;59;1242;-54
2022/08/05 03:14:38;;;;;;;;;;;;;;;;;;2221937;66;1260;-54
2022/08/05 03:17:12;;;;;;;;;;;;;;;;;;2215963;59;1455;-54
2022/08/05 03:19:45;;;;;;;;;;;;;;;;;;2216974;66;1693;-55
2022/08/05 03:22:18;;;;;;;;;;;;;;;;;;2215763;67;1143;-54
2022/08/05 03:24:52;;;;;;;;;;;;;;;;;;2215741;67;1198;-54
2022/08/05 03:27:26;;;;;;;;;;;;;;;;;;2215971;66;1296;-54
2022/08/05 03:30:03;;;;;;;;;;;;;;;;;;2218858;58;1249;-54
2022/08/05 03:32:36;;;;;;;;;;;;;;;;;;2216481;67;1921;-54
2022/08/05 03:35:09;;;;;;;;;;;;;;;;;;2216275;67;1222;-54
2022/08/05 03:37:43;;;;;;;;;;;;;;;;;;2216646;59;1699;-55
2022/08/05 03:40:16;;;;;;;;;;;;;;;;;;2215187;67;1202;-53
2022/08/05 03:42:49;;;;;;;;;;;;;;;;;;2215670;67;1251;-54
2022/08/05 03:45:26;;;;;;;;;;;;;;;;;;2215708;67;1222;-53
2022/08/05 03:47:59;;;;;;;;;;;;;;;;;;2215818;62;1213;-56
2022/08/05 03:50:37;;;;;;;;;;;;;;;;;;2216211;67;1110;-54
2022/08/05 03:53:13;;;;;;;;;;;;;;;;;;2214711;66;1912;-54
2022/08/05 03:55:52;;;;;;;;;;;;;;;;;;2215745;67;1247;-54
2022/08/05 03:58:26;;;;;;;;;;;;;;;;;;2214898;67;1364;-58
2022/08/05 04:01:04;;;;;;;;;;;;;;;;;;2214651;67;1113;-54
2022/08/05 04:03:38;;;;;;;;;;;;;;;;;;2214887;59;1474;-54
2022/08/05 04:06:12;;;;;;;;;;;;;;;;;;2215122;67;1227;-54
2022/08/05 04:08:45;;;;;;;;;;;;;;;;;;2215003;67;1175;-54
2022/08/05 04:11:19;;;;;;;;;;;;;;;;;;2214631;59;1251;-54
2022/08/05 04:13:52;;;;;;;;;;;;;;;;;;2215039;59;1984;-54
2022/08/05 04:16:28;;;;;;;;;;;;;;;;;;2214821;59;1414;-54
2022/08/05 04:19:01;;;;;;;;;;;;;;;;;;2215995;67;1203;-55
2022/08/05 04:21:35;;;;;;;;;;;;;;;;;;2216607;67;1157;-55
2022/08/05 04:24:08;;;;;;;;;;;;;;;;;;2215547;66;1118;-54
2022/08/05 04:26:41;;;;;;;;;;;;;;;;;;2214521;67;1286;-54
2022/08/05 04:29:15;;;;;;;;;;;;;;;;;;2214966;67;1218;-56
2022/08/05 04:31:51;;;;;;;;;;;;;;;;;;2214277;66;1210;-55
2022/08/05 04:34:24;;;;;;;;;;;;;;;;;;2213796;66;1925;-54
2022/08/05 04:36:57;;;;;;;;;;;;;;;;;;2213792;59;1395;-54
2022/08/05 04:39:30;;;;;;;;;;;;;;;;;;2213518;58;1971;-54
2022/08/05 04:42:04;;;;;;;;;;;;;;;;;;2214105;66;1229;-54
2022/08/05 04:44:37;;;;;;;;;;;;;;;;;;2213295;67;1119;-54
2022/08/05 04:47:13;;;;;;;;;;;;;;;;;;2213742;59;1236;-56
2022/08/05 04:49:46;;;;;;;;;;;;;;;;;;2213464;67;1192;-54
2022/08/05 04:52:19;;;;;;;;;;;;;;;;;;2213092;66;1441;-54
2022/08/05 04:54:53;;;;;;;;;;;;;;;;;;2213935;66;1927;-54
2022/08/05 04:57:26;;;;;;;;;;;;;;;;;;2213454;67;1269;-56
2022/08/05 04:59:59;;;;;;;;;;;;;;;;;;2214020;66;1160;-54
2022/08/05 05:02:35;;;;;;;;;;;;;;;;;;2212930;59;1601;-56
2022/08/05 05:05:08;;;;;;;;;;;;;;;;;;2212887;59;1185;-54
2022/08/05 05:07:42;;;;;;;;;;;;;;;;;;2212924;67;1329;-54
2022/08/05 05:10:15;;;;;;;;;;;;;;;;;;2212818;66;1244;-55
2022/08/05 05:12:48;;;;;;;;;;;;;;;;;;2213481;59;1976;-54
2022/08/05 05:15:21;;;;;;;;;;;;;;;;;;2213502;59;1363;-56
2022/08/05 05:17:57;;;;;;;;;;;;;;;;;;2213214;67;1280;-54
2022/08/05 05:20:30;;;;;;;;;;;;;;;;;;2213094;67;1067;-54
2022/08/05 05:23:04;;;;;;;;;;;;;;;;;;2213810;67;1245;-54
2022/08/05 05:25:38;;;;;;;;;;;;;;;;;;2213604;67;1140;-54
2022/08/05 05:28:11;;;;;;;;;;;;;;;;;;2213648;67;1273;-54
2022/08/05 05:30:45;;;;;;;;;;;;;;;;;;2213627;59;1221;-54
2022/08/05 05:33:21;;;;;;;;;;;;;;;;;;2213202;67;1926;-54
2022/08/05 05:35:54;;;;;;;;;;;;;;;;;;2213410;59;1271;-54
2022/08/05 05:38:27;;;;;;;;;;;;;;;;;;2213363;59;1499;-54
2022/08/05 05:41:00;;;;;;;;;;;;;;;;;;2209889;66;1270;-54
2022/08/05 05:43:34;;;;;;;;;;;;;;;;;;2214103;66;1154;-56
2022/08/05 05:46:07;;;;;;;;;;;;;;;;;;2214152;67;1258;-54
2022/08/05 05:48:43;;;;;;;;;;;;;;;;;;2213889;66;1176;-55
2022/08/05 05:51:20;;;;;;;;;;;;;;;;;;2209582;67;1437;-54
2022/08/05 05:53:54;;;;;;;;;;;;;;;;;;2213492;66;1918;-56
2022/08/05 05:56:28;;;;;;;;;;;;;;;;;;2213630;66;1233;-55
2022/08/05 05:59:02;;;;;;;;;;;;;;;;;;2213383;67;1152;-54
2022/08/05 06:01:35;;;;;;;;;;;;;;;;;;2213703;59;1522;-54
2022/08/05 06:04:12;;;;;;;;;;;;;;;;;;2213458;59;1426;-56
2022/08/05 06:06:46;;;;;;;;;;;;;;;;;;2214969;66;1240;-54
2022/08/05 06:09:19;;;;;;;;;;;;;;;;;;2216872;66;1301;-54
2022/08/05 06:11:52;;;;;;;;;;;;;;;;;;2216421;59;1342;-55
2022/08/05 06:14:26;;;;;;;;;;;;;;;;;;2213214;59;1941;-54
2022/08/05 06:16:59;;;;;;;;;;;;;;;;;;2213740;66;1332;-57
2022/08/05 06:19:35;;;;;;;;;;;;;;;;;;2213853;66;1166;-54
2022/08/05 06:22:09;;;;;;;;;;;;;;;;;;2213694;67;1115;-54
2022/08/05 06:24:43;;;;;;;;;;;;;;;;;;2213689;66;1066;-54
2022/08/05 06:27:16;;;;;;;;;;;;;;;;;;2213512;66;1257;-54
2022/08/05 06:29:50;;;;;;;;;;;;;;;;;;2214506;67;1309;-54
2022/08/05 06:32:23;;;;;;;;;;;;;;;;;;2213329;58;1225;-56
2022/08/05 06:34:59;;;;;;;;;;;;;;;;;;2213365;66;1964;-54
2022/08/05 06:37:33;;;;;;;;;;;;;;;;;;2212664;59;1663;-54
2022/08/05 06:40:07;;;;;;;;;;;;;;;;;;2210000;67;2077;-55
2022/08/05 06:42:40;;;;;;;;;;;;;;;;;;2213628;66;1211;-56
2022/08/05 06:45:13;;;;;;;;;;;;;;;;;;2213328;66;1232;-55
2022/08/05 06:47:46;;;;;;;;;;;;;;;;;;2214263;67;1266;-54
2022/08/05 06:50:23;;;;;;;;;;;;;;;;;;2212978;66;1174;-55
2022/08/05 06:52:56;;;;;;;;;;;;;;;;;;2214190;58;1283;-55
2022/08/05 06:55:30;;;;;;;;;;;;;;;;;;2213489;59;1933;-54
2022/08/05 06:58:03;;;;;;;;;;;;;;;;;;2213676;67;1207;-54
2022/08/05 07:00:36;;;;;;;;;;;;;;;;;;2212725;67;1208;-55
2022/08/05 07:03:09;;;;;;;;;;;;;;;;;;2214843;59;1468;-54
2022/08/05 07:05:45;;;;;;;;;;;;;;;;;;2210812;66;1199;-54
2022/08/05 07:08:19;;;;;;;;;;;;;;;;;;2212540;67;1254;-55
2022/08/05 07:10:53;;;;;;;;;;;;;;;;;;2210339;66;1555;-55
2022/08/05 07:19:04;;;;;;;;;;;;;;;;;;2210437;66;1451;-56
2022/08/05 07:21:40;;;;;;;;;;;;;;;;;;2213427;67;1143;-58
2022/08/05 07:24:13;;;;;;;;;;;;;;;;;;2211990;59;1116;-55
2022/08/05 07:26:47;;;;;;;;;;;;;;;;;;2213384;66;1246;-55
2022/08/05 07:29:20;;;;;;;;;;;;;;;;;;2211716;67;1150;-55
2022/08/05 07:31:53;;;;;;;;;;;;;;;;;;2213919;67;1312;-55
2022/08/05 07:34:27;;;;;;;;;;;;;;;;;;2212628;67;1931;-55
2022/08/05 07:37:03;;;;;;;;;;;;;;;;;;2209973;59;1817;-56
2022/08/05 07:39:36;;;;;;;;;;;;;;;;;;2212740;67;1237;-56
2022/08/05 07:42:09;;;;;;;;;;;;;;;;;;2213683;66;1276;-57
2022/08/05 07:44:42;;;;;;;;;;;;;;;;;;2212658;67;1193;-55
2022/08/05 07:47:15;;;;;;;;;;;;;;;;;;2212762;66;1178;-56
2022/08/05 07:49:50;;;;;;;;;;;;;;;;;;2211864;66;1158;-55
2022/08/05 07:52:26;;;;;;;;;;;;;;;;;;2208919;66;1919;-56
2022/08/05 07:55:00;;;;;;;;;;;;;;;;;;2213130;59;2196;-55
2022/08/05 07:57:33;;;;;;;;;;;;;;;;;;2213911;66;1222;-56
2022/08/05 08:00:08;;;;;;;;;;;;;;;;;;2213140;59;1245;-55
2022/08/05 08:02:43;;;;;;;;;;;;;;;;;;2212680;59;1533;-57
2022/08/05 08:05:17;;;;;;;;;;;;;;;;;;2213055;66;1236;-56
2022/08/05 08:07:54;;;;;;;;;;;;;;;;;;2212695;66;1273;-56
2022/08/05 08:10:28;;;;;;;;;;;;;;;;;;2212760;59;1120;-56
2022/08/05 08:13:01;;;;;;;;;;;;;;;;;;2212760;59;1417;-55
2022/08/05 08:15:34;;;;;;;;;;;;;;;;;;2213497;59;1970;-55
2022/08/05 08:18:08;;;;;;;;;;;;;;;;;;2219464;54;2004;-77
2022/08/05 08:20:41;;;;;;;;;;;;;;;;;;2218517;66;1209;-77
2022/08/05 08:23:17;;;;;;;;;;;;;;;;;;2219530;66;1162;-76
2022/08/05 08:25:50;;;;;;;;;;;;;;;;;;2220144;66;1189;-75
2022/08/05 08:28:23;;;;;;;;;;;;;;;;;;2218929;66;1272;-76
2022/08/05 08:41:42;;;;;;;;;;;;;;;;;;2255630;53;1878;-79
2022/08/05 08:44:16;;;;;;;;;;;;;;;;;;2213308;66;1996;-79
2022/08/05 08:46:49;;;;;;;;;;;;;;;;;;2215418;66;1455;-79
2022/08/05 08:49:24;;;;;;;;;;;;;;;;;;2215466;66;1212;-79
2022/08/05 08:52:00;;;;;;;;;;;;;;;;;;2214447;66;1308;-79
2022/08/05 08:54:33;;;;;;;;;;;;;;;;;;2215035;66;1118;-78
2022/08/05 08:57:10;;;;;;;;;;;;;;;;;;2213956;66;1176;-79
2022/08/05 08:59:44;;;;;;;;;;;;;;;;;;2214405;66;1297;-78
2022/08/05 09:02:17;;;;;;;;;;;;;;;;;;2213470;58;1802;-79
2022/08/05 09:04:50;;;;;;;;;;;;;;;;;;2213720;59;1984;-77
2022/08/05 09:07:24;;;;;;;;;;;;;;;;;;2214023;59;1227;-77
2022/08/05 09:09:57;;;;;;;;;;;;;;;;;;2213689;66;1289;-77
2022/08/05 09:12:33;;;;;;;;;;;;;;;;;;2213740;58;1235;-77
2022/08/05 09:15:07;;;;;;;;;;;;;;;;;;2213588;59;1325;-78
2022/08/05 09:17:41;;;;;;;;;;;;;;;;;;2213784;66;1277;-78
2022/08/05 09:20:15;;;;;;;;;;;;;;;;;;2213696;66;1285;-78
2022/08/05 09:23:07;;;;;;;;;;;;;;;;;;2213735;59;1200;-77
2022/08/05 09:25:41;;;;;;;;;;;;;;;;;;2213658;66;1946;-77
2022/08/05 09:28:18;;;;;;;;;;;;;;;;;;2214588;58;2210;-79
2022/08/05 09:30:56;;;;;;;;;;;;;;;;;;2214453;58;1506;-78
2022/08/05 09:33:29;;;;;;;;;;;;;;;;;;2213932;66;1210;-77
2022/08/05 09:36:03;;;;;;;;;;;;;;;;;;2214893;58;1364;-78
2022/08/05 09:38:36;;;;;;;;;;;;;;;;;;2214288;59;1728;-77
2022/08/05 09:41:10;;;;;;;;;;;;;;;;;;2213425;58;1214;-77
2022/08/05 09:43:46;;;;;;;;;;;;;;;;;;2214081;58;1166;-78
2022/08/05 09:46:28;;;;;;;;;;;;;;;;;;2213506;58;2023;-78
2022/08/05 09:49:03;;;;;;;;;;;;;;;;;;2213381;59;1108;-77
2022/08/05 09:51:38;;;;;;;;;;;;;;;;;;2213740;66;1208;-77
2022/08/05 09:54:11;;;;;;;;;;;;;;;;;;2213601;66;1202;-78
2022/08/05 09:56:45;;;;;;;;;;;;;;;;;;2214554;66;1246;-78
2022/08/05 09:59:25;;;;;;;;;;;;;;;;;;2213641;66;1272;-78
2022/08/05 10:01:58;;;;;;;;;;;;;;;;;;2214187;58;1421;-77
2022/08/05 10:04:36;;;;;;;;;;;;;;;;;;2214333;59;1931;-77
2022/08/05 10:07:09;;;;;;;;;;;;;;;;;;2213718;66;1194;-77
2022/08/05 10:09:55;;;;;;;;;;;;;;;;;;2214466;66;1246;-77
2022/08/05 10:12:28;;;;;;;;;;;;;;;;;;2213830;58;1236;-77
2022/08/05 10:15:20;;;;;;;;;;;;;;;;;;2214032;58;1440;-78
2022/08/05 10:18:09;;;;;;;;;;;;;;;;;;2214131;58;1249;-77
2022/08/05 10:20:45;;;;;;;;;;;;;;;;;;2214256;66;1309;-77
2022/08/05 10:23:20;;;;;;;;;;;;;;;;;;2214736;66;1272;-77
2022/08/05 10:25:54;;;;;;;;;;;;;;;;;;2214687;66;1928;-77
2022/08/05 10:28:27;;;;;;;;;;;;;;;;;;2213405;66;1217;-77
2022/08/05 10:31:02;;;;;;;;;;;;;;;;;;2213735;59;1257;-77
2022/08/05 10:33:38;;;;;;;;;;;;;;;;;;2214180;66;1188;-78
2022/08/05 10:36:11;;;;;;;;;;;;;;;;;;2214961;59;1408;-78
2022/08/05 10:38:47;;;;;;;;;;;;;;;;;;2215057;59;1742;-77
2022/08/05 10:41:27;;;;;;;;;;;;;;;;;;2214808;59;1270;-77
2022/08/05 10:44:02;;;;;;;;;;;;;;;;;;2213541;66;1247;-77
2022/08/05 10:46:46;;;;;;;;;;;;;;;;;;2215611;58;1940;-77
2022/08/05 10:49:22;;;;;;;;;;;;;;;;;;2213316;66;1916;-77
2022/08/05 10:51:59;;;;;;;;;;;;;;;;;;2214571;66;1198;-77
2022/08/05 10:54:48;;;;;;;;;;;;;;;;;;2215447;66;1218;-77
2022/08/05 10:57:27;;;;;;;;;;;;;;;;;;2214609;66;1264;-77
2022/08/05 11:00:14;;;;;;;;;;;;;;;;;;2214403;66;1272;-77
2022/08/05 11:03:05;;;;;;;;;;;;;;;;;;2214929;58;1498;-77
2022/08/05 11:05:41;;;;;;;;;;;;;;;;;;2215136;66;1937;-77
2022/08/05 11:08:15;;;;;;;;;;;;;;;;;;2214737;66;1191;-77
2022/08/05 11:10:48;;;;;;;;;;;;;;;;;;2214511;58;1258;-77
2022/08/05 11:13:36;;;;;;;;;;;;;;;;;;2214811;66;1236;-76
2022/08/05 11:16:25;;;;;;;;;;;;;;;;;;2214608;58;1478;-78
2022/08/05 11:19:17;;;;;;;;;;;;;;;;;;2214278;66;1335;-76
2022/08/05 11:21:52;;;;;;;;;;;;;;;;;;2214430;66;1247;-77
2022/08/05 11:24:26;;;;;;;;;;;;;;;;;;2214122;58;1128;-77
2022/08/05 11:27:14;;;;;;;;;;;;;;;;;;2213954;66;1929;-77
2022/08/05 11:29:47;;;;;;;;;;;;;;;;;;2212206;66;1966;-76
2022/08/05 11:32:27;;;;;;;;;;;;;;;;;;2213810;66;1089;-77
2022/08/05 11:35:00;;;;;;;;;;;;;;;;;;2214062;58;1267;-77
2022/08/05 11:38:01;;;;;;;;;;;;;;;;;;2215219;58;1601;-77
2022/08/05 11:40:53;;;;;;;;;;;;;;;;;;2214807;59;1269;-77
2022/08/05 11:43:26;;;;;;;;;;;;;;;;;;2214605;66;1257;-77
2022/08/05 11:45:59;;;;;;;;;;;;;;;;;;2214229;66;2002;-75
2022/08/05 11:48:33;;;;;;;;;;;;;;;;;;2215000;66;1120;-77
2022/08/05 11:51:06;;;;;;;;;;;;;;;;;;2214031;66;1252;-77
2022/08/05 11:53:42;;;;;;;;;;;;;;;;;;2214812;66;1274;-77
2022/08/05 11:56:16;;;;;;;;;;;;;;;;;;2214195;66;1194;-77
2022/08/05 11:58:50;;;;;;;;;;;;;;;;;;2214015;59;1254;-76
2022/08/05 12:01:23;;;;;;;;;;;;;;;;;;2214380;59;1494;-76
2022/08/05 12:03:58;;;;;;;;;;;;;;;;;;2214434;58;1249;-76
2022/08/05 12:06:36;;;;;;;;;;;;;;;;;;2214140;58;1937;-77
2022/08/05 12:09:12;;;;;;;;;;;;;;;;;;2213972;66;1183;-76
2022/08/05 12:11:46;;;;;;;;;;;;;;;;;;2213799;59;1300;-76
2022/08/05 12:14:19;;;;;;;;;;;;;;;;;;2213975;59;1356;-77
2022/08/05 12:16:52;;;;;;;;;;;;;;;;;;2213950;59;1464;-76
2022/08/05 12:19:25;;;;;;;;;;;;;;;;;;2213895;66;1171;-76
2022/08/05 12:21:58;;;;;;;;;;;;;;;;;;2214416;66;1299;-76
2022/08/05 12:24:35;;;;;;;;;;;;;;;;;;2214500;58;1198;-76
2022/08/05 12:27:08;;;;;;;;;;;;;;;;;;2213997;66;1943;-77
2022/08/05 12:29:41;;;;;;;;;;;;;;;;;;2214049;66;1151;-77
2022/08/05 12:32:14;;;;;;;;;;;;;;;;;;2214143;66;1188;-76
2022/08/05 12:34:47;;;;;;;;;;;;;;;;;;2213644;59;1275;-77
2022/08/05 12:37:20;;;;;;;;;;;;;;;;;;2214396;58;1596;-76
2022/08/05 12:39:57;;;;;;;;;;;;;;;;;;2213677;58;1272;-76
2022/08/05 12:42:31;;;;;;;;;;;;;;;;;;2213860;66;1072;-75
2022/08/05 12:45:06;;;;;;;;;;;;;;;;;;2213391;66;1151;-75
2022/08/05 12:47:40;;;;;;;;;;;;;;;;;;2213878;66;2004;-76
2022/08/05 12:50:17;;;;;;;;;;;;;;;;;;2213237;58;1244;-76
2022/08/05 12:52:58;;;;;;;;;;;;;;;;;;2214252;66;1260;-76
2022/08/05 12:55:34;;;;;;;;;;;;;;;;;;2213869;66;1216;-77
2022/08/05 12:58:07;;;;;;;;;;;;;;;;;;2213629;66;1175;-76
2022/08/05 13:00:43;;;;;;;;;;;;;;;;;;2213795;66;1268;-76
2022/08/05 13:03:16;;;;;;;;;;;;;;;;;;2214674;58;1573;-77
2022/08/05 13:05:49;;;;;;;;;;;;;;;;;;2214368;58;1976;-76
2022/08/05 13:08:23;;;;;;;;;;;;;;;;;;2213722;66;1293;-77
2022/08/05 13:11:03;;;;;;;;;;;;;;;;;;2213445;59;1379;-76
2022/08/05 13:13:39;;;;;;;;;;;;;;;;;;2213386;66;1201;-77
2022/08/05 13:16:18;;;;;;;;;;;;;;;;;;2213093;59;1351;-76
2022/08/05 13:18:54;;;;;;;;;;;;;;;;;;2213191;66;1141;-77
2022/08/05 13:21:27;;;;;;;;;;;;;;;;;;2213274;59;1234;-76
2022/08/05 13:24:00;;;;;;;;;;;;;;;;;;2213447;66;1199;-76
2022/08/05 13:26:36;;;;;;;;;;;;;;;;;;2214961;66;1996;-77
2022/08/05 13:29:10;;;;;;;;;;;;;;;;;;2213543;66;1404;-76
2022/08/05 13:31:43;;;;;;;;;;;;;;;;;;2214186;66;1265;-76
2022/08/05 13:34:17;;;;;;;;;;;;;;;;;;2214593;66;1159;-76
2022/08/05 13:36:50;;;;;;;;;;;;;;;;;;2214507;58;1364;-77
2022/08/05 13:39:23;;;;;;;;;;;;;;;;;;2214974;59;1608;-77
2022/08/05 13:41:59;;;;;;;;;;;;;;;;;;2214648;59;1317;-76
2022/08/05 13:44:32;;;;;;;;;;;;;;;;;;2214400;66;1169;-76
2022/08/05 13:47:06;;;;;;;;;;;;;;;;;;2214137;59;1966;-75
2022/08/05 13:49:39;;;;;;;;;;;;;;;;;;2214386;66;1104;-77
2022/08/05 13:52:13;;;;;;;;;;;;;;;;;;2214345;66;1098;-76
2022/08/05 13:54:46;;;;;;;;;;;;;;;;;;2213476;66;1359;-76
2022/08/05 13:57:22;;;;;;;;;;;;;;;;;;2213723;66;1289;-76
2022/08/05 13:59:55;;;;;;;;;;;;;;;;;;2214490;66;1255;-76
2022/08/05 14:02:28;;;;;;;;;;;;;;;;;;2213975;59;1545;-76
2022/08/05 14:05:14;;;;;;;;;;;;;;;;;;2214016;59;1317;-77
2022/08/05 14:07:47;;;;;;;;;;;;;;;;;;2214159;59;1986;-76
2022/08/05 14:10:21;;;;;;;;;;;;;;;;;;2214019;58;1238;-77
2022/08/05 14:12:58;;;;;;;;;;;;;;;;;;2214377;59;1276;-76
2022/08/05 14:15:31;;;;;;;;;;;;;;;;;;2214107;58;1301;-76
2022/08/05 14:18:05;;;;;;;;;;;;;;;;;;2214192;66;1289;-76
2022/08/05 14:20:38;;;;;;;;;;;;;;;;;;2213672;66;1231;-77
2022/08/05 14:23:11;;;;;;;;;;;;;;;;;;2213866;66;1338;-76
2022/08/05 14:25:44;;;;;;;;;;;;;;;;;;2214104;66;1220;-77
2022/08/05 14:28:20;;;;;;;;;;;;;;;;;;2213155;66;1936;-76
2022/08/05 14:30:53;;;;;;;;;;;;;;;;;;2214130;66;1255;-76
2022/08/05 14:33:26;;;;;;;;;;;;;;;;;;2213624;58;1197;-77
2022/08/05 14:35:59;;;;;;;;;;;;;;;;;;2213917;58;1508;-76
2022/08/05 14:38:32;;;;;;;;;;;;;;;;;;2214336;59;1542;-77
2022/08/05 14:41:06;;;;;;;;;;;;;;;;;;2217326;53;3581;-56
2022/08/05 14:43:42;;;;;;;;;;;;;;;;;;2216403;66;1196;-55
2022/08/05 14:46:15;;;;;;;;;;;;;;;;;;2216092;66;1980;-57
2022/08/05 14:48:48;;;;;;;;;;;;;;;;;;2215716;66;1301;-55
2022/08/05 14:51:22;;;;;;;;;;;;;;;;;;2215543;66;1210;-56
2022/08/05 14:53:55;;;;;;;;;;;;;;;;;;2215468;66;1266;-58
2022/08/05 14:56:28;;;;;;;;;;;;;;;;;;2216120;66;1242;-55
2022/08/05 14:59:04;;;;;;;;;;;;;;;;;;2216278;66;1291;-55
2022/08/05 15:01:37;;;;;;;;;;;;;;;;;;2217414;58;1537;-58
2022/08/05 15:04:11;;;;;;;;;;;;;;;;;;2215598;58;1355;-55
2022/08/05 15:06:44;;;;;;;;;;;;;;;;;;2216662;58;1976;-56
2022/08/05 15:09:17;;;;;;;;;;;;;;;;;;2215601;66;1268;-57
2022/08/05 15:11:50;;;;;;;;;;;;;;;;;;2216217;58;1214;-55
2022/08/05 15:14:26;;;;;;;;;;;;;;;;;;2214870;59;1239;-56
2022/08/05 15:16:59;;;;;;;;;;;;;;;;;;2216928;58;1295;-55
2022/08/05 15:19:33;;;;;;;;;;;;;;;;;;2214806;66;1210;-55
2022/08/05 15:22:07;;;;;;;;;;;;;;;;;;2215939;66;1203;-59
2022/08/05 15:24:40;;;;;;;;;;;;;;;;;;2215579;66;1166;-55
2022/08/05 15:27:13;;;;;;;;;;;;;;;;;;2214942;66;1988;-57
2022/08/05 15:29:49;;;;;;;;;;;;;;;;;;2216212;66;1066;-56
2022/08/05 15:32:23;;;;;;;;;;;;;;;;;;2215996;66;1128;-57
2022/08/05 15:34:56;;;;;;;;;;;;;;;;;;2215022;66;1198;-56
2022/08/05 15:37:29;;;;;;;;;;;;;;;;;;2216431;58;1644;-56
2022/08/05 15:40:02;;;;;;;;;;;;;;;;;;2215246;66;1566;-59
2022/08/05 15:42:35;;;;;;;;;;;;;;;;;;2219007;53;2011;-76
2022/08/05 15:45:12;;;;;;;;;;;;;;;;;;2213454;66;1292;-77
2022/08/05 15:47:45;;;;;;;;;;;;;;;;;;2213247;66;1936;-76
2022/08/05 15:50:18;;;;;;;;;;;;;;;;;;2213100;66;1223;-75
2022/08/05 15:52:51;;;;;;;;;;;;;;;;;;2214230;58;2194;-76
2022/08/05 15:55:25;;;;;;;;;;;;;;;;;;2213108;59;1267;-76
2022/08/05 15:57:58;;;;;;;;;;;;;;;;;;2215022;53;3635;-64
2022/08/05 16:00:34;;;;;;;;;;;;;;;;;;2207296;67;1197;-64
2022/08/05 16:03:07;;;;;;;;;;;;;;;;;;2208737;59;1461;-65
2022/08/05 16:05:40;;;;;;;;;;;;;;;;;;2207169;59;1403;-64
2022/08/05 16:08:13;;;;;;;;;;;;;;;;;;2207143;67;1930;-65
2022/08/05 16:10:46;;;;;;;;;;;;;;;;;;2208942;59;1699;-65
2022/08/05 16:13:19;;;;;;;;;;;;;;;;;;2207890;67;1231;-64
2022/08/05 16:15:55;;;;;;;;;;;;;;;;;;2207368;67;1322;-65
2022/08/05 16:18:28;;;;;;;;;;;;;;;;;;2207977;67;1195;-64
2022/08/05 16:21:01;;;;;;;;;;;;;;;;;;2209275;67;1290;-64
2022/08/05 16:23:34;;;;;;;;;;;;;;;;;;2210119;67;1212;-62
2022/08/05 16:26:08;;;;;;;;;;;;;;;;;;2209615;67;1152;-65
2022/08/05 16:28:41;;;;;;;;;;;;;;;;;;2210088;59;1937;-64
2022/08/05 16:31:17;;;;;;;;;;;;;;;;;;2209563;59;1275;-65
2022/08/05 16:33:50;;;;;;;;;;;;;;;;;;2209094;67;1222;-63
2022/08/05 16:36:24;;;;;;;;;;;;;;;;;;2209987;59;1362;-63
2022/08/05 16:38:57;;;;;;;;;;;;;;;;;;2209609;59;1698;-64
2022/08/05 16:41:30;;;;;;;;;;;;;;;;;;2209984;67;1296;-63
2022/08/05 16:44:03;;;;;;;;;;;;;;;;;;2210186;67;1220;-63
2022/08/05 16:46:39;;;;;;;;;;;;;;;;;;2209507;67;1125;-61
2022/08/05 16:49:13;;;;;;;;;;;;;;;;;;2209233;67;1933;-65
2022/08/05 16:51:46;;;;;;;;;;;;;;;;;;2209506;67;1236;-65
2022/08/05 16:54:20;;;;;;;;;;;;;;;;;;2209734;67;1210;-63
2022/08/05 16:56:53;;;;;;;;;;;;;;;;;;2208313;59;1143;-64
2022/08/05 16:59:26;;;;;;;;;;;;;;;;;;2209838;67;1249;-65
2022/08/05 17:02:02;;;;;;;;;;;;;;;;;;2210337;59;1505;-64
2022/08/05 17:04:35;;;;;;;;;;;;;;;;;;2209678;59;1318;-65
2022/08/05 17:07:08;;;;;;;;;;;;;;;;;;2209478;59;1928;-65
2022/08/05 17:09:41;;;;;;;;;;;;;;;;;;2209124;67;1114;-63
2022/08/05 17:12:14;;;;;;;;;;;;;;;;;;2208712;59;1300;-65
2022/08/05 17:14:47;;;;;;;;;;;;;;;;;;2209469;67;1100;-63
2022/08/05 17:17:31;;;;;;;;;;;;;;;;;;2209751;59;1719;-63
2022/08/05 17:20:06;;;;;;;;;;;;;;;;;;2208889;67;1192;-63
2022/08/05 17:22:39;;;;;;;;;;;;;;;;;;2208880;67;1233;-65
2022/08/05 17:25:12;;;;;;;;;;;;;;;;;;2208663;67;1218;-64
2022/08/05 17:27:45;;;;;;;;;;;;;;;;;;2208317;59;1982;-63
2022/08/05 17:30:18;;;;;;;;;;;;;;;;;;2209365;67;1219;-64
2022/08/05 17:32:54;;;;;;;;;;;;;;;;;;2208665;67;1227;-65
2022/08/05 17:35:28;;;;;;;;;;;;;;;;;;2209487;59;1413;-64
2022/08/05 17:38:01;;;;;;;;;;;;;;;;;;2208719;59;1668;-64
2022/08/05 17:40:34;;;;;;;;;;;;;;;;;;2209258;67;1187;-62
2022/08/05 17:43:07;;;;;;;;;;;;;;;;;;2209235;67;1232;-63
2022/08/05 17:45:40;;;;;;;;;;;;;;;;;;2209174;67;1215;-63
2022/08/05 17:48:16;;;;;;;;;;;;;;;;;;2209031;67;1927;-65
2022/08/05 17:50:50;;;;;;;;;;;;;;;;;;2209076;67;1257;-65
2022/08/05 17:53:23;;;;;;;;;;;;;;;;;;2209264;67;1318;-64
2022/08/05 17:55:58;;;;;;;;;;;;;;;;;;2207926;67;1109;-64
2022/08/05 17:58:33;;;;;;;;;;;;;;;;;;2208135;67;1141;-63
2022/08/05 18:01:07;;;;;;;;;;;;;;;;;;2208688;67;1196;-65
2022/08/05 18:03:43;;;;;;;;;;;;;;;;;;2209310;59;1807;-65
2022/08/05 18:06:16;;;;;;;;;;;;;;;;;;2209030;59;1583;-63
2022/08/05 18:08:49;;;;;;;;;;;;;;;;;;2208320;67;2227;-65
2022/08/05 18:11:23;;;;;;;;;;;;;;;;;;2208559;59;1293;-64